createdAt,value
2022-10-09T00:01:12.037Z,99.90
2022-10-09T00:03:40.735Z,99.90
2022-10-09T00:06:10.338Z,99.90
2022-10-09T00:08:39.401Z,99.90
2022-10-09T00:11:08.339Z,99.90
2022-10-09T00:13:36.207Z,99.90
2022-10-09T00:16:08.743Z,99.90
2022-10-09T00:18:37.053Z,99.90
2022-10-09T00:21:05.512Z,99.90
2022-10-09T00:23:32.895Z,99.90
2022-10-09T00:26:01.833Z,99.90
2022-10-09T00:28:34.300Z,99.90
2022-10-09T00:31:09.171Z,99.90
2022-10-09T00:33:37.314Z,99.90
2022-10-09T00:36:06.746Z,99.90
2022-10-09T00:38:34.712Z,99.90
2022-10-09T00:41:02.588Z,99.90
2022-10-09T00:43:54.879Z,99.90
2022-10-09T00:46:48.214Z,99.90
2022-10-09T00:49:28.952Z,99.90
2022-10-09T00:52:02.969Z,99.90
2022-10-09T00:54:33.161Z,99.90
2022-10-09T00:57:00.793Z,99.90
2022-10-09T00:59:28.414Z,99.90
2022-10-09T01:01:56.137Z,99.90
2022-10-09T01:04:23.445Z,99.90
2022-10-09T01:07:04.924Z,99.90
2022-10-09T01:09:50.923Z,99.90
2022-10-09T01:12:30.962Z,99.90
2022-10-09T01:15:06.490Z,99.90
2022-10-09T01:17:45.488Z,99.90
2022-10-09T01:20:50.188Z,99.90
2022-10-09T01:23:24.335Z,99.90
2022-10-09T01:26:09.273Z,99.90
2022-10-09T01:28:37.675Z,99.90
2022-10-09T01:31:06.417Z,99.90
2022-10-09T01:33:34.684Z,99.90
2022-10-09T01:36:04.422Z,99.90
2022-10-09T01:38:33.085Z,99.90
2022-10-09T01:41:03.562Z,99.90
2022-10-09T01:43:30.789Z,99.90
2022-10-09T01:46:18.191Z,99.90
2022-10-09T01:48:51.003Z,99.90
2022-10-09T01:51:25.107Z,99.90
2022-10-09T01:53:56.527Z,99.90
2022-10-09T01:56:27.551Z,99.90
2022-10-09T01:58:59.253Z,99.90
2022-10-09T02:01:33.293Z,99.90
2022-10-09T02:04:05.388Z,99.90
2022-10-09T02:06:33.526Z,99.90
2022-10-09T02:09:04.255Z,99.90
2022-10-09T02:11:33.331Z,99.90
2022-10-09T02:14:00.636Z,99.90
2022-10-09T02:16:40.540Z,99.90
2022-10-09T02:19:36.693Z,99.90
2022-10-09T02:22:25.073Z,99.90
2022-10-09T02:24:52.726Z,99.90
2022-10-09T02:27:21.801Z,99.90
2022-10-09T02:29:49.637Z,99.90
2022-10-09T02:32:16.976Z,99.90
2022-10-09T02:34:44.576Z,99.90
2022-10-09T02:37:12.161Z,99.90
2022-10-09T02:39:39.379Z,99.90
2022-10-09T02:42:06.641Z,99.90
2022-10-09T02:44:33.832Z,99.90
2022-10-09T02:47:01.222Z,99.90
2022-10-09T02:49:28.445Z,99.90
2022-10-09T02:51:55.675Z,99.90
2022-10-09T02:54:22.853Z,99.90
2022-10-09T02:56:50.177Z,99.90
2022-10-09T02:59:17.464Z,99.90
2022-10-09T03:01:44.860Z,99.90
2022-10-09T03:04:12.231Z,99.90
2022-10-09T03:06:39.529Z,99.90
2022-10-09T03:09:06.743Z,99.90
2022-10-09T03:11:34.077Z,99.90
2022-10-09T03:14:01.323Z,99.90
2022-10-09T03:16:28.963Z,99.90
2022-10-09T03:18:56.352Z,99.90
2022-10-09T03:21:25.951Z,99.90
2022-10-09T03:23:53.782Z,99.90
2022-10-09T03:26:23.801Z,99.90
2022-10-09T03:28:52.766Z,99.90
2022-10-09T03:31:47.011Z,99.90
2022-10-09T03:34:11.227Z,99.90
2022-10-09T03:36:38.483Z,99.90
2022-10-09T03:39:05.683Z,99.90
2022-10-09T03:41:32.925Z,99.90
2022-10-09T03:44:00.145Z,99.90
2022-10-09T03:46:27.486Z,99.90
2022-10-09T03:48:54.732Z,99.90
2022-10-09T03:51:21.931Z,99.90
2022-10-09T03:53:49.283Z,99.90
2022-10-09T03:56:16.643Z,99.90
2022-10-09T03:58:43.916Z,99.90
2022-10-09T04:01:11.321Z,99.90
2022-10-09T04:03:38.682Z,99.90
2022-10-09T04:06:06.260Z,99.90
2022-10-09T04:08:33.517Z,99.90
2022-10-09T04:11:01.124Z,99.90
2022-10-09T04:13:28.479Z,99.90
2022-10-09T04:15:56.388Z,99.90
2022-10-09T04:18:24.989Z,99.90
2022-10-09T04:20:55.066Z,99.90
2022-10-09T04:23:25.072Z,99.90
2022-10-09T04:25:58.236Z,99.90
2022-10-09T04:28:27.046Z,99.90
2022-10-09T04:30:54.531Z,99.90
2022-10-09T04:33:21.811Z,99.90
2022-10-09T04:35:54.078Z,99.90
2022-10-09T04:38:22.147Z,99.90
2022-10-09T04:41:03.823Z,99.90
2022-10-09T04:43:31.687Z,99.90
2022-10-09T04:45:59.059Z,99.90
2022-10-09T04:48:26.424Z,99.90
2022-10-09T04:50:53.649Z,99.90
2022-10-09T04:53:20.903Z,99.90
2022-10-09T04:55:48.325Z,99.90
2022-10-09T04:58:15.548Z,99.90
2022-10-09T05:00:44.597Z,99.90
2022-10-09T05:03:12.764Z,99.90
2022-10-09T05:05:40.047Z,99.90
2022-10-09T05:08:07.302Z,99.90
2022-10-09T05:10:34.552Z,99.90
2022-10-09T05:13:01.859Z,99.90
2022-10-09T05:15:29.078Z,99.90
2022-10-09T05:17:57.116Z,99.90
2022-10-09T05:20:24.336Z,99.90
2022-10-09T05:22:52.038Z,99.90
2022-10-09T05:25:19.587Z,99.90
2022-10-09T05:27:46.815Z,99.90
2022-10-09T05:30:14.073Z,99.90
2022-10-09T05:32:41.235Z,99.90
2022-10-09T05:35:08.689Z,99.90
2022-10-09T05:37:35.896Z,99.90
2022-10-09T05:40:04.074Z,99.90
2022-10-09T05:42:31.320Z,99.90
2022-10-09T05:44:58.564Z,99.90
2022-10-09T05:47:25.917Z,99.90
2022-10-09T05:49:53.227Z,99.90
2022-10-09T05:52:20.402Z,99.90
2022-10-09T05:54:47.633Z,99.90
2022-10-09T05:57:14.908Z,99.90
2022-10-09T05:59:42.090Z,99.90
2022-10-09T06:02:09.642Z,99.90
2022-10-09T06:04:36.882Z,99.90
2022-10-09T06:07:04.115Z,99.90
2022-10-09T06:09:31.438Z,99.90
2022-10-09T06:11:58.596Z,99.90
2022-10-09T06:14:26.104Z,99.90
2022-10-09T06:16:53.777Z,99.90
2022-10-09T06:19:21.397Z,99.90
2022-10-09T06:21:49.243Z,99.90
2022-10-09T06:24:24.315Z,99.90
2022-10-09T06:26:54.557Z,99.90
2022-10-09T06:29:22.007Z,99.90
2022-10-09T06:31:49.505Z,99.90
2022-10-09T06:34:17.022Z,99.90
2022-10-09T06:36:44.242Z,99.90
2022-10-09T06:39:11.674Z,99.90
2022-10-09T06:41:39.459Z,99.90
2022-10-09T06:44:29.986Z,99.90
2022-10-09T06:46:57.379Z,99.90
2022-10-09T06:49:24.752Z,99.90
2022-10-09T06:51:52.089Z,99.90
2022-10-09T06:54:19.665Z,99.90
2022-10-09T06:56:46.822Z,99.90
2022-10-09T06:59:14.089Z,99.90
2022-10-09T07:01:41.660Z,99.90
2022-10-09T07:04:14.645Z,99.90
2022-10-09T07:06:44.433Z,99.90
2022-10-09T07:09:13.811Z,99.90
2022-10-09T07:11:50.171Z,99.90
2022-10-09T07:14:19.850Z,99.90
2022-10-09T07:16:49.037Z,99.90
2022-10-09T07:19:18.151Z,99.90
2022-10-09T07:21:48.308Z,99.90
2022-10-09T07:24:17.150Z,99.90
2022-10-09T07:26:46.081Z,99.90
2022-10-09T07:29:15.357Z,99.90
2022-10-09T07:31:43.982Z,99.90
2022-10-09T07:34:11.669Z,99.90
2022-10-09T07:36:39.106Z,99.90
2022-10-09T07:39:06.639Z,99.90
2022-10-09T07:41:34.701Z,99.90
2022-10-09T07:44:02.325Z,99.90
2022-10-09T07:46:33.351Z,99.90
2022-10-09T07:49:02.138Z,99.90
2022-10-09T07:51:33.049Z,99.90
2022-10-09T07:54:02.221Z,99.90
2022-10-09T07:56:35.284Z,99.90
2022-10-09T07:59:05.649Z,99.90
2022-10-09T08:01:34.901Z,99.90
2022-10-09T08:04:02.981Z,99.90
2022-10-09T08:06:31.408Z,99.90
2022-10-09T08:09:04.158Z,99.90
2022-10-09T08:11:32.203Z,99.90
2022-10-09T08:13:59.758Z,99.90
2022-10-09T08:16:27.909Z,99.90
2022-10-09T08:18:59.993Z,99.90
2022-10-09T08:21:30.513Z,99.90
2022-10-09T08:23:58.749Z,99.90
2022-10-09T08:26:27.969Z,99.90
2022-10-09T08:29:00.469Z,99.90
2022-10-09T08:31:28.676Z,99.90
2022-10-09T08:33:58.050Z,99.90
2022-10-09T08:36:26.346Z,99.90
2022-10-09T08:38:53.647Z,99.90
2022-10-09T08:41:33.270Z,99.90
2022-10-09T08:44:04.959Z,99.90
2022-10-09T08:46:55.345Z,99.90
2022-10-09T08:49:32.547Z,99.90
2022-10-09T08:52:19.337Z,99.90
2022-10-09T08:54:46.599Z,99.90
2022-10-09T08:57:15.776Z,99.90
2022-10-09T08:59:43.913Z,99.90
2022-10-09T09:02:48.741Z,99.90
2022-10-09T09:05:40.036Z,99.90
2022-10-09T09:08:20.188Z,99.90
2022-10-09T09:11:21.279Z,99.90
2022-10-09T09:13:51.923Z,99.90
2022-10-09T09:16:31.534Z,99.90
2022-10-09T09:19:20.417Z,99.90
2022-10-09T09:21:51.143Z,99.90
2022-10-09T09:24:33.824Z,99.90
2022-10-09T09:27:10.502Z,99.90
2022-10-09T09:29:44.768Z,99.90
2022-10-09T09:32:23.277Z,99.90
2022-10-09T09:34:52.765Z,99.90
2022-10-09T09:37:20.013Z,99.90
2022-10-09T09:42:34.609Z,99.90
2022-10-09T09:45:07.718Z,99.90
2022-10-09T09:47:46.957Z,99.90
2022-10-09T09:50:35.097Z,99.90
2022-10-09T09:53:07.012Z,99.90
2022-10-09T09:55:35.053Z,99.90
2022-10-09T09:58:06.115Z,99.90
2022-10-09T10:00:35.219Z,99.90
2022-10-09T10:03:14.295Z,99.90
2022-10-09T10:05:43.582Z,99.90
2022-10-09T10:08:27.227Z,99.90
2022-10-09T10:11:00.841Z,99.90
2022-10-09T10:13:28.075Z,99.90
2022-10-09T10:15:57.670Z,99.90
2022-10-09T10:18:28.690Z,99.90
2022-10-09T10:21:01.720Z,99.90
2022-10-09T10:23:55.661Z,99.90
2022-10-09T10:26:38.083Z,99.90
2022-10-09T10:29:18.921Z,99.90
2022-10-09T10:32:08.072Z,99.90
2022-10-09T10:34:46.889Z,99.90
2022-10-09T10:37:14.417Z,99.90
2022-10-09T10:40:20.994Z,99.90
2022-10-09T10:43:07.620Z,99.90
2022-10-09T10:45:41.458Z,99.90
2022-10-09T10:48:17.974Z,99.90
2022-10-09T10:51:25.075Z,99.90
2022-10-09T10:54:21.556Z,99.90
2022-10-09T10:56:54.628Z,99.90
2022-10-09T10:59:24.598Z,99.90
2022-10-09T11:02:17.560Z,99.90
2022-10-09T11:04:55.041Z,99.90
2022-10-09T11:07:42.576Z,99.90
2022-10-09T11:10:57.060Z,99.90
2022-10-09T11:13:48.975Z,99.90
2022-10-09T11:16:57.201Z,99.90
2022-10-09T11:19:36.430Z,99.90
2022-10-09T11:22:34.333Z,99.90
2022-10-09T11:25:23.383Z,99.90
2022-10-09T11:28:14.870Z,99.90
2022-10-09T11:30:54.975Z,99.90
2022-10-09T11:33:40.764Z,99.90
2022-10-09T11:36:16.571Z,99.90
2022-10-09T11:38:49.025Z,99.90
2022-10-09T11:41:16.644Z,99.90
2022-10-09T11:43:53.387Z,99.90
2022-10-09T11:46:25.752Z,99.90
2022-10-09T11:49:00.088Z,99.90
2022-10-09T11:51:52.163Z,99.90
2022-10-09T11:54:22.100Z,99.90
2022-10-09T11:56:57.240Z,99.90
2022-10-09T11:59:31.231Z,99.90
2022-10-09T12:02:01.262Z,99.90
2022-10-09T12:04:50.489Z,99.80
2022-10-09T12:10:33.867Z,99.20
2022-10-09T12:13:04.344Z,97.60
2022-10-09T12:15:54.720Z,97.20
2022-10-09T12:18:45.483Z,96.20
2022-10-09T12:21:24.676Z,95.10
2022-10-09T12:23:53.139Z,94.80
2022-10-09T12:26:23.621Z,94.70
2022-10-09T12:28:57.565Z,93.60
2022-10-09T12:31:32.019Z,93.20
2022-10-09T12:34:04.776Z,92.30
2022-10-09T12:36:33.640Z,91.60
2022-10-09T12:39:14.453Z,91.40
2022-10-09T12:41:45.775Z,90.50
2022-10-09T12:44:33.866Z,90.20
2022-10-09T12:47:07.969Z,90.40
2022-10-09T12:49:36.114Z,90.10
2022-10-09T12:52:03.917Z,90.60
2022-10-09T12:54:31.511Z,90.50
2022-10-09T12:57:00.758Z,90.30
2022-10-09T12:59:29.280Z,89.90
2022-10-09T13:01:59.873Z,89.40
2022-10-09T13:04:32.801Z,88.90
2022-10-09T13:07:05.782Z,88.10
2022-10-09T13:09:39.408Z,88.40
2022-10-09T13:12:15.937Z,87.60
2022-10-09T13:14:45.711Z,86.40
2022-10-09T13:17:22.116Z,85.60
2022-10-09T13:19:54.919Z,85.40
2022-10-09T13:22:24.657Z,85.60
2022-10-09T13:24:54.725Z,85.50
2022-10-09T13:27:26.019Z,84.40
2022-10-09T13:29:54.065Z,84.30
2022-10-09T13:32:24.147Z,84.00
2022-10-09T13:34:54.969Z,84.30
2022-10-09T13:37:23.740Z,83.10
2022-10-09T13:39:59.269Z,82.50
2022-10-09T13:42:30.196Z,82.20
2022-10-09T13:44:57.724Z,81.90
2022-10-09T13:47:25.059Z,81.10
2022-10-09T13:49:52.368Z,80.40
2022-10-09T13:52:19.780Z,80.40
2022-10-09T13:54:47.060Z,80.10
2022-10-09T13:57:14.449Z,79.90
2022-10-09T13:59:41.733Z,79.30
2022-10-09T14:02:10.852Z,79.70
2022-10-09T14:04:38.350Z,79.10
2022-10-09T14:07:05.590Z,79.30
2022-10-09T14:09:32.869Z,79.70
2022-10-09T14:12:00.186Z,79.70
2022-10-09T14:14:27.463Z,78.90
2022-10-09T14:16:54.775Z,79.20
2022-10-09T14:19:27.137Z,79.10
2022-10-09T14:21:58.106Z,78.50
2022-10-09T14:24:26.840Z,78.60
2022-10-09T14:26:54.097Z,78.50
2022-10-09T14:29:21.265Z,78.50
2022-10-09T14:31:51.700Z,78.90
2022-10-09T14:34:19.012Z,79.40
2022-10-09T14:36:46.563Z,79.30
2022-10-09T14:39:14.004Z,79.40
2022-10-09T14:41:41.773Z,79.60
2022-10-09T14:44:10.113Z,80.20
2022-10-09T14:46:39.138Z,80.20
2022-10-09T14:49:08.212Z,80.30
2022-10-09T14:51:37.540Z,80.50
2022-10-09T14:54:06.196Z,80.60
2022-10-09T14:56:33.970Z,80.80
2022-10-09T14:59:01.744Z,81.10
2022-10-09T15:01:30.020Z,81.30
2022-10-09T15:03:59.658Z,81.50
2022-10-09T15:06:29.759Z,81.70
2022-10-09T15:09:05.316Z,81.30
2022-10-09T15:11:34.340Z,81.50
2022-10-09T15:14:02.376Z,81.70
2022-10-09T15:16:29.613Z,81.80
2022-10-09T15:18:57.393Z,81.50
2022-10-09T15:21:27.868Z,81.70
2022-10-09T15:23:56.942Z,82.00
2022-10-09T15:26:25.562Z,82.30
2022-10-09T15:28:52.934Z,82.50
2022-10-09T15:31:24.314Z,82.20
2022-10-09T15:33:52.989Z,82.00
2022-10-09T15:36:21.537Z,82.20
2022-10-09T15:38:49.737Z,82.30
2022-10-09T15:41:25.809Z,82.00
2022-10-09T15:43:56.580Z,82.10
2022-10-09T15:46:25.081Z,82.00
2022-10-09T15:48:52.915Z,81.80
2022-10-09T15:51:20.843Z,82.20
2022-10-09T15:53:49.638Z,82.10
2022-10-09T15:56:22.748Z,81.90
2022-10-09T15:58:51.268Z,81.90
2022-10-09T16:01:19.732Z,81.90
2022-10-09T16:03:48.200Z,82.00
2022-10-09T16:06:18.073Z,81.40
2022-10-09T16:08:46.375Z,81.40
2022-10-09T16:11:17.925Z,81.80
2022-10-09T16:13:48.219Z,81.90
2022-10-09T16:16:21.573Z,81.70
2022-10-09T16:18:49.405Z,81.60
2022-10-09T16:21:23.175Z,81.90
2022-10-09T16:23:54.468Z,82.00
2022-10-09T16:26:24.921Z,81.80
2022-10-09T16:28:52.605Z,81.80
2022-10-09T16:31:24.174Z,82.00
2022-10-09T16:33:52.006Z,81.70
2022-10-09T16:36:19.377Z,81.70
2022-10-09T16:38:47.170Z,82.00
2022-10-09T16:41:17.896Z,81.80
2022-10-09T16:43:47.514Z,81.80
2022-10-09T16:46:27.425Z,81.90
2022-10-09T16:48:56.843Z,82.10
2022-10-09T16:51:27.709Z,82.20
2022-10-09T16:54:00.254Z,82.00
2022-10-09T16:56:32.844Z,82.00
2022-10-09T16:59:02.219Z,82.00
2022-10-09T17:01:30.783Z,81.80
2022-10-09T17:04:02.608Z,82.00
2022-10-09T17:06:30.421Z,82.20
2022-10-09T17:08:59.235Z,82.20
2022-10-09T17:11:29.653Z,82.60
2022-10-09T17:13:58.102Z,83.00
2022-10-09T17:16:29.221Z,83.10
2022-10-09T17:18:56.990Z,82.90
2022-10-09T17:21:27.824Z,83.00
2022-10-09T17:24:00.316Z,83.10
2022-10-09T17:26:28.616Z,83.10
2022-10-09T17:28:58.849Z,83.20
2022-10-09T17:31:27.029Z,83.40
2022-10-09T17:33:57.248Z,83.40
2022-10-09T17:36:27.617Z,83.50
2022-10-09T17:38:55.575Z,83.50
2022-10-09T17:41:24.451Z,83.60
2022-10-09T17:43:53.107Z,83.40
2022-10-09T17:46:20.981Z,83.30
2022-10-09T17:48:53.176Z,83.40
2022-10-09T17:51:29.482Z,83.50
2022-10-09T17:54:00.803Z,83.60
2022-10-09T17:56:29.755Z,83.80
2022-10-09T17:58:59.366Z,84.00
2022-10-09T18:01:26.952Z,84.10
2022-10-09T18:03:54.431Z,84.00
2022-10-09T18:06:23.823Z,84.10
2022-10-09T18:08:53.000Z,84.40
2022-10-09T18:11:22.490Z,84.80
2022-10-09T18:13:50.169Z,84.90
2022-10-09T18:16:22.366Z,85.10
2022-10-09T18:18:49.753Z,85.20
2022-10-09T18:21:17.578Z,86.10
2022-10-09T18:23:46.854Z,85.60
2022-10-09T18:26:16.904Z,86.00
2022-10-09T18:28:48.154Z,86.00
2022-10-09T18:31:19.581Z,86.00
2022-10-09T18:33:47.388Z,86.50
2022-10-09T18:36:19.437Z,86.40
2022-10-09T18:38:52.862Z,86.60
2022-10-09T18:41:22.013Z,86.90
2022-10-09T18:43:51.002Z,87.10
2022-10-09T18:46:21.024Z,87.20
2022-10-09T18:48:48.293Z,87.30
2022-10-09T18:51:20.051Z,87.60
2022-10-09T18:53:50.786Z,87.80
2022-10-09T18:56:19.939Z,88.00
2022-10-09T18:58:48.552Z,88.30
2022-10-09T19:01:15.949Z,88.60
2022-10-09T19:03:46.055Z,88.60
2022-10-09T19:06:16.846Z,88.90
2022-10-09T19:08:44.144Z,89.20
2022-10-09T19:11:14.194Z,89.60
2022-10-09T19:13:42.867Z,89.70
2022-10-09T19:16:10.459Z,90.00
2022-10-09T19:18:39.371Z,90.20
2022-10-09T19:21:07.232Z,90.40
2022-10-09T19:23:34.443Z,90.60
2022-10-09T19:26:01.701Z,90.90
2022-10-09T19:28:33.022Z,91.10
2022-10-09T19:31:02.500Z,91.20
2022-10-09T19:33:29.850Z,91.50
2022-10-09T19:35:57.607Z,91.70
2022-10-09T19:38:25.571Z,91.80
2022-10-09T19:40:53.206Z,92.00
2022-10-09T19:43:21.278Z,92.20
2022-10-09T19:45:50.514Z,92.40
2022-10-09T19:48:20.247Z,92.50
2022-10-09T19:50:47.482Z,92.70
2022-10-09T19:53:14.653Z,92.90
2022-10-09T19:55:41.868Z,93.00
2022-10-09T19:58:09.390Z,93.10
2022-10-09T20:00:42.969Z,93.30
2022-10-09T20:03:10.300Z,93.50
2022-10-09T20:05:37.821Z,93.70
2022-10-09T20:08:05.813Z,93.70
2022-10-09T20:10:36.733Z,94.20
2022-10-09T20:13:05.633Z,94.10
2022-10-09T20:15:33.195Z,94.10
2022-10-09T20:18:00.429Z,94.30
2022-10-09T20:20:27.666Z,94.40
2022-10-09T20:22:54.927Z,94.60
2022-10-09T20:25:22.152Z,94.60
2022-10-09T20:27:49.416Z,94.60
2022-10-09T20:30:16.815Z,94.70
2022-10-09T20:32:44.094Z,94.80
2022-10-09T20:35:11.435Z,95.00
2022-10-09T20:37:38.910Z,95.00
2022-10-09T20:40:06.600Z,95.20
2022-10-09T20:42:33.831Z,95.20
2022-10-09T20:45:01.029Z,95.30
2022-10-09T20:47:28.212Z,95.40
2022-10-09T20:49:55.415Z,95.60
2022-10-09T20:52:22.723Z,95.70
2022-10-09T20:54:50.026Z,95.70
2022-10-09T20:57:17.502Z,95.80
2022-10-09T20:59:44.868Z,95.80
2022-10-09T21:02:15.609Z,96.00
2022-10-09T21:04:42.903Z,96.00
2022-10-09T21:07:10.294Z,96.10
2022-10-09T21:09:37.558Z,96.30
2022-10-09T21:12:04.902Z,96.40
2022-10-09T21:14:32.068Z,96.40
2022-10-09T21:16:59.600Z,96.50
2022-10-09T21:19:26.916Z,96.60
2022-10-09T21:21:54.152Z,96.60
2022-10-09T21:24:21.418Z,96.70
2022-10-09T21:26:48.854Z,96.80
2022-10-09T21:29:16.174Z,96.80
2022-10-09T21:31:43.510Z,96.80
2022-10-09T21:34:10.754Z,96.80
2022-10-09T21:39:33.201Z,96.90
2022-10-09T21:42:00.443Z,96.90
2022-10-09T21:44:27.734Z,97.00
2022-10-09T21:46:55.149Z,97.10
2022-10-09T21:49:25.815Z,97.10
2022-10-09T21:51:53.585Z,97.20
2022-10-09T21:54:21.361Z,97.30
2022-10-09T21:56:48.749Z,97.30
2022-10-09T21:59:16.143Z,97.30
2022-10-09T22:01:43.379Z,97.50
2022-10-09T22:04:10.759Z,97.50
2022-10-09T22:06:37.953Z,97.60
2022-10-09T22:09:05.248Z,97.70
2022-10-09T22:11:32.527Z,97.70
2022-10-09T22:13:59.927Z,97.70
2022-10-09T22:16:27.159Z,97.80
2022-10-09T22:18:54.515Z,97.80
2022-10-09T22:21:22.944Z,97.90
2022-10-09T22:23:50.541Z,98.00
2022-10-09T22:26:21.217Z,98.40
2022-10-09T22:28:49.601Z,98.50
2022-10-09T22:31:25.564Z,98.20
2022-10-09T22:34:01.216Z,98.30
2022-10-09T22:36:31.749Z,98.30
2022-10-09T22:39:01.509Z,98.40
2022-10-09T22:41:30.175Z,98.50
2022-10-09T22:43:59.322Z,98.60
2022-10-09T22:46:32.558Z,98.70
2022-10-09T22:49:00.681Z,98.80
2022-10-09T22:51:29.916Z,98.90
2022-10-09T22:53:59.266Z,98.90
2022-10-09T22:56:29.872Z,99.00
2022-10-09T22:58:57.547Z,99.10
2022-10-09T23:01:41.306Z,99.20
2022-10-09T23:04:12.577Z,99.30
2022-10-09T23:06:40.673Z,99.30
2022-10-09T23:09:10.423Z,99.40
2022-10-09T23:11:37.653Z,99.50
2022-10-09T23:14:05.479Z,99.50
2022-10-09T23:16:33.662Z,99.60
2022-10-09T23:19:06.465Z,99.70
2022-10-09T23:21:36.056Z,99.70
2022-10-09T23:24:03.485Z,99.80
2022-10-09T23:26:32.611Z,99.90
2022-10-09T23:29:02.288Z,99.90
2022-10-09T23:31:29.945Z,99.90
2022-10-09T23:33:58.060Z,99.90
2022-10-09T23:36:28.552Z,99.90
2022-10-09T23:38:57.082Z,99.90
2022-10-09T23:41:27.137Z,99.90
2022-10-09T23:43:54.802Z,99.90
2022-10-09T23:46:24.980Z,99.90
2022-10-09T23:48:52.914Z,99.90
2022-10-09T23:51:22.432Z,99.90
2022-10-09T23:53:50.101Z,99.90
2022-10-09T23:56:23.369Z,99.90
2022-10-09T23:58:51.490Z,99.90
